Time;durP1;ratioP1;P1;durP2;ratioP2;P2;SDS_P1;SDS_P2;PMS_P1;PMS_P2;Temp;Humidity;BMP_temperature;BMP_pressure;BME280_temperature;BME280_humidity;BME280_pressure;Samples;Min_cycle;Max_cycle;Signal;HPM_P1;HPM_P2
2021/07/01 00:00:11;;;;;;;9.82;7.05;;;22.80;92.90;;;;;;5075967;28;20031;-85
2021/07/01 00:02:37;;;;;;;7.47;6.65;;;22.70;93.10;;;;;;5074627;28;20029;-84
2021/07/01 00:05:05;;;;;;;8.30;6.70;;;22.70;93.10;;;;;;5074610;28;20103;-84
2021/07/01 00:07:30;;;;;;;10.13;7.13;;;22.70;93.10;;;;;;5074925;28;20028;-84
2021/07/01 00:09:56;;;;;;;7.43;6.55;;;22.70;93.20;;;;;;5076073;28;20475;-84
2021/07/01 00:12:22;;;;;;;9.95;7.28;;;22.60;93.30;;;;;;5074530;28;20505;-84
2021/07/01 00:14:49;;;;;;;8.80;6.70;;;22.60;93.30;;;;;;5074431;28;20494;-84
2021/07/01 00:17:14;;;;;;;8.30;6.97;;;22.60;93.30;;;;;;5074443;28;20502;-84
2021/07/01 00:19:40;;;;;;;8.77;7.05;;;22.60;93.30;;;;;;5074224;28;20029;-84
2021/07/01 00:22:06;;;;;;;8.93;7.97;;;22.60;93.40;;;;;;5074034;28;20045;-84
2021/07/01 00:24:31;;;;;;;11.18;7.82;;;22.60;93.50;;;;;;5075569;28;20028;-84
2021/07/01 00:26:57;;;;;;;10.73;7.60;;;22.60;93.60;;;;;;5074360;28;20383;-84
2021/07/01 00:29:23;;;;;;;9.57;7.60;;;22.50;93.70;;;;;;5080915;28;20047;-84
2021/07/01 00:31:48;;;;;;;10.48;7.57;;;22.50;93.70;;;;;;5095424;28;20042;-84
2021/07/01 00:34:14;;;;;;;8.85;7.63;;;22.50;93.80;;;;;;5094321;28;20036;-84
2021/07/01 00:36:40;;;;;;;9.90;8.07;;;22.50;93.90;;;;;;5095128;28;20150;-84
2021/07/01 00:39:06;;;;;;;12.13;7.95;;;22.50;94.00;;;;;;5092835;28;20024;-84
2021/07/01 00:41:32;;;;;;;9.85;7.43;;;22.50;94.00;;;;;;5095603;28;20111;-84
2021/07/01 00:44:01;;;;;;;8.60;7.70;;;22.40;94.00;;;;;;5094130;28;20381;-84
2021/07/01 00:46:26;;;;;;;10.13;8.07;;;22.40;94.10;;;;;;5094076;28;20024;-84
2021/07/01 00:48:52;;;;;;;11.38;8.77;;;22.40;94.20;;;;;;5091599;28;20451;-84
2021/07/01 00:51:18;;;;;;;9.15;8.25;;;22.40;94.30;;;;;;5075078;28;20021;-84
2021/07/01 00:53:44;;;;;;;15.13;9.70;;;22.30;94.40;;;;;;5075333;28;20016;-84
2021/07/01 00:56:10;;;;;;;10.73;9.63;;;22.30;94.70;;;;;;5073812;28;20063;-84
2021/07/01 00:58:37;;;;;;;16.23;12.00;;;22.40;94.60;;;;;;5074894;28;20044;-84
2021/07/01 01:01:04;;;;;;;16.67;10.02;;;22.40;94.60;;;;;;5074690;28;20459;-84
2021/07/01 01:03:35;;;;;;;11.98;10.50;;;22.50;95.00;;;;;;5075024;28;20016;-83
2021/07/01 01:06:02;;;;;;;10.85;9.70;;;22.60;95.20;;;;;;5074727;28;20520;-84
2021/07/01 01:08:28;;;;;;;10.63;9.57;;;22.70;95.30;;;;;;5080285;28;20525;-84
2021/07/01 01:10:54;;;;;;;12.93;9.98;;;22.80;95.40;;;;;;5094891;28;20059;-83
2021/07/01 01:13:24;;;;;;;14.18;10.27;;;22.90;95.70;;;;;;5094484;28;20028;-83
2021/07/01 01:16:00;;;;;;;10.18;9.18;;;23.00;95.80;;;;;;5094771;28;20039;-83
2021/07/01 01:18:27;;;;;;;12.40;9.55;;;23.00;95.80;;;;;;5089080;28;20028;-83
2021/07/01 01:20:54;;;;;;;10.95;9.85;;;23.00;95.90;;;;;;5094449;28;20423;-84
2021/07/01 01:23:21;;;;;;;10.02;8.55;;;23.00;95.90;;;;;;5093286;28;20024;-84
2021/07/01 01:25:47;;;;;;;13.85;10.32;;;23.00;96.00;;;;;;5093364;28;20056;-83
2021/07/01 01:28:14;;;;;;;11.23;10.02;;;23.00;96.30;;;;;;5093272;28;20019;-83
2021/07/01 01:30:40;;;;;;;13.23;10.20;;;23.00;96.30;;;;;;5091110;28;20042;-83
2021/07/01 01:33:07;;;;;;;14.15;10.52;;;23.00;96.40;;;;;;5093154;28;20469;-83
2021/07/01 01:35:34;;;;;;;14.50;11.50;;;23.00;96.40;;;;;;5094406;28;20058;-83
2021/07/01 01:38:00;;;;;;;14.30;11.43;;;23.00;96.90;;;;;;5094618;28;20032;-85
2021/07/01 01:40:26;;;;;;;19.75;13.25;;;23.10;98.00;;;;;;5093081;28;20115;-82
2021/07/01 01:42:51;;;;;;;20.98;15.65;;;22.90;99.50;;;;;;5094424;28;20116;-89
2021/07/01 01:45:17;;;;;;;20.85;17.23;;;22.50;99.90;;;;;;5093768;28;20467;-89
2021/07/01 01:47:50;;;;;;;18.80;16.80;;;22.20;99.90;;;;;;5093804;28;20024;-91
2021/07/01 01:50:21;;;;;;;21.00;18.75;;;22.00;99.90;;;;;;5082282;28;20377;-91
2021/07/01 01:52:48;;;;;;;22.58;19.38;;;21.80;99.90;;;;;;5073562;28;20031;-91
2021/07/01 01:55:15;;;;;;;21.70;18.50;;;21.60;99.90;;;;;;5073530;28;20071;-92
2021/07/01 01:57:45;;;;;;;23.65;18.88;;;21.50;99.90;;;;;;5074153;28;20075;-91
2021/07/01 02:00:13;;;;;;;16.80;15.07;;;21.50;99.90;;;;;;5075710;28;20020;-92
2021/07/01 02:02:40;;;;;;;17.67;15.52;;;21.50;99.90;;;;;;5093596;28;20504;-89
2021/07/01 02:05:07;;;;;;;16.65;14.85;;;21.40;99.90;;;;;;5093707;28;20557;-91
2021/07/01 02:07:34;;;;;;;16.85;13.32;;;21.40;99.90;;;;;;5094578;28;20108;-92
2021/07/01 02:10:00;;;;;;;15.98;13.50;;;21.40;99.90;;;;;;5093483;28;20035;-90
2021/07/01 02:12:26;;;;;;;12.85;11.55;;;21.40;99.90;;;;;;5093392;28;20028;-89
2021/07/01 02:14:53;;;;;;;12.85;11.63;;;21.30;99.90;;;;;;5093002;28;20028;-89
2021/07/01 02:17:19;;;;;;;13.60;12.30;;;21.20;99.90;;;;;;5090825;28;20178;-89
2021/07/01 02:19:45;;;;;;;13.48;12.13;;;21.20;99.90;;;;;;5074089;28;20052;-88
2021/07/01 02:22:10;;;;;;;12.60;11.30;;;21.20;99.90;;;;;;5073877;28;20517;-89
2021/07/01 02:24:36;;;;;;;12.43;10.95;;;21.20;99.90;;;;;;5072808;28;20467;-89
2021/07/01 02:27:02;;;;;;;15.23;11.48;;;21.20;99.90;;;;;;5072800;28;20427;-88
2021/07/01 02:29:28;;;;;;;12.35;11.10;;;21.10;99.90;;;;;;5074162;28;20024;-89
2021/07/01 02:31:54;;;;;;;16.98;11.48;;;21.10;99.90;;;;;;5074221;28;20032;-91
2021/07/01 02:34:20;;;;;;;12.55;11.23;;;21.10;99.90;;;;;;5073160;28;20501;-92
2021/07/01 02:36:46;;;;;;;14.15;12.05;;;21.00;99.90;;;;;;5074208;28;20021;-91
2021/07/01 02:39:11;;;;;;;15.13;12.15;;;21.10;99.90;;;;;;5075872;28;20036;-91
2021/07/01 02:41:37;;;;;;;15.05;13.48;;;21.10;99.90;;;;;;5086602;28;20371;-92
2021/07/01 02:44:04;;;;;;;16.13;13.98;;;21.10;99.90;;;;;;5095570;28;20024;-93
2021/07/01 02:46:30;;;;;;;15.90;13.48;;;21.10;99.90;;;;;;5090133;28;20024;-93
2021/07/01 02:48:56;;;;;;;17.42;13.45;;;21.10;99.90;;;;;;5090898;28;20024;-94
2021/07/01 02:51:22;;;;;;;20.00;14.70;;;21.10;99.90;;;;;;5097185;28;20108;-94
2021/07/01 02:53:47;;;;;;;15.63;13.95;;;21.20;99.90;;;;;;5076963;28;20469;-94
2021/07/01 02:56:13;;;;;;;20.25;15.20;;;21.30;99.90;;;;;;5076922;28;20021;-94
2021/07/01 02:58:39;;;;;;;20.98;15.32;;;21.40;99.90;;;;;;5076735;28;20031;-94
2021/07/01 03:01:04;;;;;;;18.08;14.50;;;21.50;99.90;;;;;;5080804;28;20112;-93
2021/07/01 03:03:30;;;;;;;16.15;14.43;;;21.50;99.90;;;;;;5080537;28;20070;-94
2021/07/01 03:05:56;;;;;;;20.63;15.70;;;21.60;99.90;;;;;;5096644;28;20016;-93
2021/07/01 03:08:21;;;;;;;16.15;14.13;;;21.60;99.90;;;;;;5097076;28;20024;-93
2021/07/01 03:10:47;;;;;;;14.63;12.90;;;21.60;99.90;;;;;;5096814;28;20020;-92
2021/07/01 03:13:13;;;;;;;15.52;12.55;;;21.60;99.90;;;;;;5096886;28;20381;-91
2021/07/01 03:15:39;;;;;;;17.50;13.20;;;21.60;99.90;;;;;;5096633;28;20055;-92
2021/07/01 03:18:04;;;;;;;15.68;12.45;;;21.60;99.90;;;;;;5096552;28;20406;-91
2021/07/01 03:20:30;;;;;;;15.80;12.40;;;21.70;99.90;;;;;;5077467;28;20463;-92
2021/07/01 03:22:56;;;;;;;17.67;13.98;;;21.80;99.90;;;;;;5075964;28;20139;-90
2021/07/01 03:25:21;;;;;;;16.23;13.50;;;21.80;99.90;;;;;;5076285;28;20020;-92
2021/07/01 03:27:47;;;;;;;16.27;14.57;;;21.80;99.90;;;;;;5076096;28;20129;-92
2021/07/01 03:30:13;;;;;;;15.68;13.80;;;21.80;99.90;;;;;;5077424;28;20025;-92
2021/07/01 03:32:39;;;;;;;15.32;13.18;;;21.80;99.90;;;;;;5093566;28;20031;-92
2021/07/01 03:35:05;;;;;;;16.77;14.80;;;21.90;99.90;;;;;;5092651;28;20097;-93
2021/07/01 03:37:31;;;;;;;18.23;15.63;;;21.90;99.90;;;;;;5095767;28;20024;-93
2021/07/01 03:39:58;;;;;;;18.52;16.05;;;21.90;99.90;;;;;;5096585;28;20467;-93
2021/07/01 03:42:25;;;;;;;19.30;15.18;;;21.90;99.90;;;;;;5093866;28;20060;-90
2021/07/01 03:44:51;;;;;;;18.83;16.90;;;21.90;99.90;;;;;;5076598;28;20028;-87
2021/07/01 03:47:16;;;;;;;20.23;17.85;;;21.90;99.90;;;;;;5087300;28;20082;-88
2021/07/01 19:02:53;;;;;;;6.15;4.82;;;25.30;96.80;;;;;;5081755;28;20461;-90
2021/07/01 19:05:18;;;;;;;10.23;7.63;;;25.00;97.20;;;;;;5074295;28;20062;-91
2021/07/01 19:07:44;;;;;;;11.82;8.57;;;25.00;97.40;;;;;;5074044;28;20024;-91
2021/07/01 19:10:11;;;;;;;9.85;7.50;;;25.00;97.60;;;;;;5074330;28;20024;-89
2021/07/01 19:12:37;;;;;;;8.05;5.90;;;25.00;97.70;;;;;;5059308;28;20028;-91
2021/07/01 19:15:03;;;;;;;8.48;5.80;;;25.00;97.70;;;;;;5053614;28;20025;-90
2021/07/01 19:17:28;;;;;;;7.88;5.60;;;25.10;97.60;;;;;;5053738;28;20420;-90
2021/07/01 19:19:54;;;;;;;8.95;5.57;;;25.10;97.60;;;;;;5053671;28;20051;-90
2021/07/01 19:22:20;;;;;;;7.05;5.15;;;25.20;97.50;;;;;;5053574;28;20028;-91
2021/07/01 19:24:46;;;;;;;7.93;5.45;;;25.20;97.60;;;;;;5053532;28;20056;-91
2021/07/01 19:27:13;;;;;;;9.05;5.72;;;25.20;97.50;;;;;;5053647;28;20060;-91
2021/07/01 19:29:38;;;;;;;7.28;5.20;;;25.20;97.40;;;;;;5053643;28;20029;-90
2021/07/01 19:32:04;;;;;;;6.90;4.97;;;25.30;97.40;;;;;;5053745;28;20116;-93
2021/07/01 19:34:30;;;;;;;7.22;5.13;;;25.30;97.30;;;;;;5053666;28;20052;-91
2021/07/01 19:36:56;;;;;;;8.38;5.18;;;25.30;97.10;;;;;;5070904;28;20025;-91
2021/07/01 19:39:23;;;;;;;7.30;5.05;;;25.30;97.20;;;;;;5053360;28;20032;-92
2021/07/01 19:41:51;;;;;;;6.55;5.13;;;25.30;97.10;;;;;;5044362;28;20486;-91
2021/07/01 19:44:18;;;;;;;11.23;6.38;;;25.30;97.10;;;;;;5033351;28;20044;-90
2021/07/01 19:46:49;;;;;;;5.93;5.00;;;25.20;97.20;;;;;;5033113;28;20032;-90
2021/07/01 19:49:16;;;;;;;7.53;5.30;;;25.20;97.20;;;;;;5033128;28;20021;-91
2021/07/01 19:51:43;;;;;;;8.55;5.47;;;25.20;97.30;;;;;;5033254;28;20506;-91
2021/07/01 19:54:10;;;;;;;10.95;5.50;;;25.20;97.40;;;;;;5033295;28;20030;-95
2021/07/01 19:56:46;;;;;;;11.20;8.70;;;25.20;97.40;;;;;;5035397;28;20029;-93
2021/07/01 19:59:17;;;;;;;17.77;11.55;;;25.20;97.40;;;;;;5034185;28;20025;-90
2021/07/01 20:01:48;;;;;;;12.90;8.27;;;25.20;97.40;;;;;;5032913;28;20530;-90
2021/07/01 20:04:13;;;;;;;13.48;8.25;;;25.10;97.60;;;;;;5040719;28;20025;-90
2021/07/01 20:06:39;;;;;;;13.63;7.80;;;25.00;97.60;;;;;;5041319;28;20017;-90
2021/07/01 20:09:05;;;;;;;9.40;6.95;;;24.90;97.60;;;;;;5052830;28;20024;-90
2021/07/01 20:11:31;;;;;;;11.05;6.80;;;24.90;97.70;;;;;;5041701;28;20044;-90
2021/07/01 20:13:57;;;;;;;9.68;6.50;;;24.90;97.80;;;;;;5024100;28;20021;-91
2021/07/01 20:16:23;;;;;;;8.07;6.70;;;24.80;97.80;;;;;;5039528;28;20108;-90
2021/07/01 20:18:48;;;;;;;8.57;6.57;;;24.70;97.80;;;;;;5039454;28;20033;-91
2021/07/01 20:21:14;;;;;;;9.32;6.20;;;24.70;97.90;;;;;;5039253;28;20036;-90
2021/07/01 20:23:40;;;;;;;13.98;6.50;;;24.60;98.00;;;;;;5027815;28;20036;-90
2021/07/01 20:26:06;;;;;;;9.02;6.97;;;24.60;98.10;;;;;;5019322;28;20025;-90
2021/07/01 20:28:31;;;;;;;7.60;6.65;;;24.50;98.20;;;;;;5019455;28;20064;-90
2021/07/01 20:30:58;;;;;;;8.40;6.13;;;24.50;98.20;;;;;;5019312;28;20029;-90
2021/07/01 20:33:24;;;;;;;8.02;6.25;;;24.50;98.30;;;;;;5019304;28;20399;-90
2021/07/01 20:35:50;;;;;;;9.43;6.03;;;24.40;98.40;;;;;;5019456;28;20555;-90
2021/07/01 20:38:16;;;;;;;7.72;6.32;;;24.30;98.40;;;;;;5019256;28;20120;-90
2021/07/01 20:40:42;;;;;;;8.48;6.57;;;24.30;98.50;;;;;;5019124;28;20442;-90
2021/07/01 20:43:08;;;;;;;8.68;6.78;;;24.20;98.50;;;;;;5033374;28;20367;-90
2021/07/01 20:45:33;;;;;;;9.30;6.93;;;24.20;98.60;;;;;;5019379;28;20030;-90
2021/07/01 20:47:59;;;;;;;10.52;7.30;;;24.20;98.70;;;;;;5037115;28;20052;-90
2021/07/01 20:50:25;;;;;;;12.32;7.25;;;24.10;98.70;;;;;;5025550;28;20056;-90
2021/07/01 20:52:52;;;;;;;10.57;7.70;;;24.10;98.70;;;;;;5023634;28;20029;-91
2021/07/01 20:55:19;;;;;;;11.60;7.18;;;24.10;98.90;;;;;;5038913;28;20029;-91
2021/07/01 20:57:47;;;;;;;9.68;6.88;;;24.10;98.80;;;;;;5038736;28;20104;-91
2021/07/01 21:00:19;;;;;;;9.15;6.78;;;24.10;98.80;;;;;;5038648;28;20025;-90
2021/07/01 21:02:46;;;;;;;10.57;7.95;;;24.00;98.80;;;;;;5038277;28;20042;-90
2021/07/01 21:05:13;;;;;;;10.20;7.88;;;24.00;98.80;;;;;;5038445;28;20025;-90
2021/07/01 21:07:44;;;;;;;10.23;7.93;;;24.10;98.80;;;;;;5037595;28;20064;-90
2021/07/01 21:10:15;;;;;;;11.82;8.43;;;24.10;98.70;;;;;;5039308;28;20021;-91
2021/07/01 21:12:47;;;;;;;12.25;8.82;;;24.10;98.80;;;;;;5019781;28;20450;-90
2021/07/01 21:15:13;;;;;;;15.07;9.68;;;24.10;98.80;;;;;;5018591;28;20025;-90
2021/07/01 21:17:40;;;;;;;16.85;11.90;;;24.10;98.80;;;;;;5018601;28;20113;-90
2021/07/01 21:20:09;;;;;;;14.95;12.00;;;24.00;98.70;;;;;;5018328;28;20025;-90
2021/07/01 21:22:35;;;;;;;16.05;11.73;;;24.00;98.80;;;;;;5018517;28;20144;-90
2021/07/01 21:25:01;;;;;;;18.92;12.32;;;24.00;98.80;;;;;;5017314;28;20029;-91
2021/07/01 21:27:28;;;;;;;16.77;11.90;;;24.00;98.90;;;;;;5018511;28;20032;-90
2021/07/01 21:29:56;;;;;;;17.85;11.85;;;23.90;98.90;;;;;;5018077;28;20018;-89
2021/07/01 21:32:22;;;;;;;20.17;13.70;;;23.90;98.90;;;;;;5018180;28;20112;-89
2021/07/01 21:34:48;;;;;;;28.83;18.25;;;23.90;98.90;;;;;;5018387;28;20052;-92
2021/07/01 21:37:14;;;;;;;34.92;20.38;;;23.80;99.00;;;;;;5018345;28;20052;-93
2021/07/01 21:39:40;;;;;;;30.45;17.92;;;23.90;99.00;;;;;;5018055;28;20030;-92
2021/07/01 21:42:06;;;;;;;21.88;13.82;;;23.80;98.90;;;;;;5017961;28;20032;-91
2021/07/01 21:44:33;;;;;;;18.08;11.30;;;23.90;98.90;;;;;;5021439;28;20026;-91
2021/07/01 21:47:02;;;;;;;14.63;8.80;;;23.90;98.80;;;;;;5018752;28;20056;-90
2021/07/01 21:49:30;;;;;;;10.23;7.50;;;23.90;98.80;;;;;;5017793;28;20028;-91
2021/07/01 21:51:57;;;;;;;10.73;7.40;;;23.90;98.70;;;;;;5017827;28;20421;-90
2021/07/01 21:54:23;;;;;;;8.98;6.80;;;24.00;98.70;;;;;;5017795;28;20022;-90
2021/07/01 21:56:49;;;;;;;13.35;7.28;;;24.00;98.70;;;;;;5019981;28;20120;-91
2021/07/01 21:59:23;;;;;;;8.25;6.38;;;24.00;98.70;;;;;;5037507;28;20057;-90
2021/07/01 22:01:50;;;;;;;8.25;6.70;;;24.00;98.60;;;;;;5025661;28;20403;-90
2021/07/01 22:04:17;;;;;;;10.63;6.72;;;24.00;98.70;;;;;;5017489;28;20022;-90
2021/07/01 22:06:44;;;;;;;11.20;6.53;;;24.00;98.70;;;;;;5017619;28;20087;-90
2021/07/01 22:09:10;;;;;;;7.53;6.40;;;23.90;98.70;;;;;;5017590;28;20026;-91
2021/07/01 22:11:42;;;;;;;9.45;6.03;;;23.90;98.70;;;;;;5017375;28;20052;-89
2021/07/01 22:14:09;;;;;;;8.18;6.82;;;23.90;98.70;;;;;;4997897;28;20026;-90
2021/07/01 22:16:37;;;;;;;10.75;6.97;;;23.90;98.80;;;;;;4997699;28;20079;-89
2021/07/01 22:22:02;;;;;;;8.98;6.72;;;23.90;98.80;;;;;;4970307;28;20065;-91
2021/07/01 22:24:28;;;;;;;11.02;7.35;;;23.80;98.90;;;;;;4997421;28;20034;-92
2021/07/01 22:26:54;;;;;;;8.93;7.28;;;23.80;98.90;;;;;;4997576;28;20036;-90
2021/07/01 22:29:19;;;;;;;9.63;7.15;;;23.80;98.90;;;;;;4997677;28;20022;-93
2021/07/01 22:31:46;;;;;;;12.10;7.45;;;23.90;98.90;;;;;;4997779;28;20099;-95
2021/07/01 22:34:12;;;;;;;9.70;7.45;;;23.90;99.00;;;;;;4997775;28;20029;-94
2021/07/01 22:36:41;;;;;;;9.95;6.82;;;23.80;99.00;;;;;;4997447;28;20037;-94
2021/07/01 22:39:11;;;;;;;9.27;7.47;;;23.80;99.00;;;;;;4997499;28;20544;-94
2021/07/01 22:41:38;;;;;;;9.45;7.72;;;23.80;99.20;;;;;;4997433;28;20037;-94
2021/07/01 22:44:04;;;;;;;12.32;8.70;;;23.80;99.20;;;;;;4997334;28;20048;-94
2021/07/01 22:46:30;;;;;;;10.82;8.05;;;23.70;99.20;;;;;;4997429;28;20029;-90
2021/07/01 22:48:56;;;;;;;9.48;7.63;;;23.70;99.30;;;;;;4997221;28;20358;-90
2021/07/01 22:51:22;;;;;;;10.63;7.57;;;23.60;99.40;;;;;;4997249;28;20037;-89
2021/07/01 22:53:48;;;;;;;11.00;7.03;;;23.60;99.40;;;;;;4998019;28;20045;-90
2021/07/01 22:56:13;;;;;;;11.63;7.70;;;23.60;99.50;;;;;;4997439;28;20034;-90
2021/07/01 22:58:40;;;;;;;10.68;7.53;;;23.50;99.50;;;;;;4997478;28;20497;-90
2021/07/01 23:01:07;;;;;;;11.60;7.30;;;23.50;99.60;;;;;;5002540;28;20050;-90
2021/07/01 23:03:32;;;;;;;9.23;7.38;;;23.50;99.60;;;;;;5016786;28;20033;-90
2021/07/01 23:05:59;;;;;;;8.18;6.78;;;23.50;99.70;;;;;;5016857;28;20018;-93
2021/07/01 23:08:24;;;;;;;8.43;6.80;;;23.50;99.80;;;;;;5016751;28;20064;-92
2021/07/01 23:10:50;;;;;;;12.60;7.97;;;23.40;99.70;;;;;;5016887;28;20107;-93
2021/07/01 23:13:16;;;;;;;8.82;7.20;;;23.40;99.70;;;;;;5016656;28;20491;-93
2021/07/01 23:15:42;;;;;;;9.82;7.65;;;23.40;99.70;;;;;;5016794;28;20117;-94
2021/07/01 23:18:08;;;;;;;11.88;7.40;;;23.40;99.70;;;;;;5016705;28;20025;-95
2021/07/01 23:20:33;;;;;;;12.52;6.60;;;23.40;99.70;;;;;;5016555;28;20052;-93
2021/07/01 23:22:59;;;;;;;10.65;7.18;;;23.40;99.70;;;;;;5017084;28;20028;-94
2021/07/01 23:25:25;;;;;;;8.15;7.00;;;23.40;99.60;;;;;;5016771;28;20460;-94
2021/07/01 23:27:50;;;;;;;8.30;6.20;;;23.40;99.70;;;;;;5017444;28;20113;-93
2021/07/01 23:30:17;;;;;;;8.07;6.93;;;23.30;99.80;;;;;;5017509;28;20025;-92
2021/07/01 23:32:44;;;;;;;9.00;6.70;;;23.30;99.80;;;;;;5018614;28;20156;-92
2021/07/01 23:35:12;;;;;;;7.25;6.50;;;23.30;99.90;;;;;;5018338;28;20033;-95
2021/07/01 23:37:40;;;;;;;7.95;6.43;;;23.20;99.90;;;;;;5016759;28;20108;-93
2021/07/01 23:40:08;;;;;;;7.10;6.40;;;23.20;99.90;;;;;;5016730;28;20060;-95
2021/07/01 23:42:34;;;;;;;8.00;7.03;;;23.20;99.90;;;;;;5016261;28;20028;-93
2021/07/01 23:44:59;;;;;;;8.93;7.13;;;23.20;99.90;;;;;;5016332;28;20480;-92
2021/07/01 23:47:25;;;;;;;8.98;7.32;;;23.20;99.90;;;;;;5016550;28;20033;-92
2021/07/01 23:49:51;;;;;;;10.40;6.70;;;23.20;99.90;;;;;;5020142;28;20032;-90
2021/07/01 23:52:17;;;;;;;8.40;7.05;;;23.20;99.90;;;;;;5033208;28;20444;-91
2021/07/01 23:54:42;;;;;;;12.40;7.25;;;23.10;99.90;;;;;;5039733;28;20029;-92
2021/07/01 23:57:08;;;;;;;10.43;6.97;;;23.10;99.90;;;;;;5039664;28;20028;-93
2021/07/01 23:59:35;;;;;;;8.73;6.82;;;23.10;99.90;;;;;;5039820;28;20117;-93
